Terminal Aerodrome Forecast
Issued by NWS

Home | Current Version | Previous Version | Text Only | Print | Product List | Glossary On
Versions: 1 2 3 4 5 6 7 8 9 10 11 12 13 14 15 16 17 18 19 20 21
649
FTUS43 KDLH 200751 AAA
TAFBRD
TAF AMD
KBRD 200751Z 2008/2106 VRB03KT 1SM BR SCT003 SCT250
      TEMPO 2008/2012 3SM BR
     FM201700 06006KT P6SM SKC
     FM210000 VRB03KT P6SM SKC=

USA.gov is the U.S. government's official web portal to all federal, state and local government web resources and services.